createdAt,value
2018-10-12T00:01:38.443Z,17.10
2018-10-12T00:04:11.499Z,17.00
2018-10-12T00:06:44.368Z,17.00
2018-10-12T00:09:16.464Z,16.90
2018-10-12T00:11:48.364Z,16.90
2018-10-12T00:14:20.034Z,17.00
2018-10-12T00:16:52.078Z,17.00
2018-10-12T00:19:24.307Z,17.10
2018-10-12T00:21:56.185Z,17.00
2018-10-12T00:24:27.964Z,17.00
2018-10-12T00:27:00.904Z,17.10
2018-10-12T00:29:33.490Z,17.10
2018-10-12T00:32:05.961Z,17.00
2018-10-12T00:34:40.471Z,17.00
2018-10-12T00:37:12.446Z,17.00
2018-10-12T00:39:45.580Z,16.90
2018-10-12T00:42:18.030Z,16.90
2018-10-12T00:44:49.208Z,16.90
2018-10-12T00:47:21.951Z,16.90
2018-10-12T00:49:53.540Z,16.80
2018-10-12T00:52:26.149Z,16.90
2018-10-12T00:54:59.054Z,16.90
2018-10-12T00:57:31.074Z,16.90
2018-10-12T01:00:02.895Z,16.80
2018-10-12T01:02:35.543Z,16.80
2018-10-12T01:05:07.499Z,16.80
2018-10-12T01:07:40.245Z,16.90
2018-10-12T01:10:12.472Z,16.80
2018-10-12T01:12:45.530Z,16.80
2018-10-12T01:15:17.619Z,16.90
2018-10-12T01:17:49.317Z,17.00
2018-10-12T01:20:21.457Z,17.00
2018-10-12T01:22:52.844Z,17.00
2018-10-12T01:25:28.424Z,16.80
2018-10-12T01:28:00.766Z,16.70
2018-10-12T01:30:33.588Z,16.60
2018-10-12T01:33:07.081Z,16.50
2018-10-12T01:35:39.342Z,16.60
2018-10-12T01:38:12.055Z,16.60
2018-10-12T01:40:43.627Z,16.50
2018-10-12T01:43:22.713Z,16.60
2018-10-12T01:45:54.536Z,16.70
2018-10-12T01:48:26.925Z,16.80
2018-10-12T01:50:59.381Z,16.90
2018-10-12T01:53:31.074Z,17.00
2018-10-12T01:56:04.801Z,17.00
2018-10-12T01:58:42.897Z,17.00
2018-10-12T02:01:19.330Z,17.00
2018-10-12T02:03:51.825Z,16.90
2018-10-12T02:06:23.849Z,16.90
2018-10-12T02:08:55.903Z,17.00
2018-10-12T02:11:28.069Z,17.00
2018-10-12T02:14:00.820Z,17.00
2018-10-12T02:16:33.414Z,17.00
2018-10-12T02:19:05.967Z,17.00
2018-10-12T02:21:37.649Z,17.00
2018-10-12T02:24:09.648Z,17.00
2018-10-12T02:26:41.864Z,16.90
2018-10-12T02:29:14.574Z,16.90
2018-10-12T02:31:46.390Z,16.90
2018-10-12T02:34:19.029Z,16.90
2018-10-12T02:36:51.737Z,16.80
2018-10-12T02:39:23.859Z,16.70
2018-10-12T02:41:56.234Z,16.70
2018-10-12T02:44:27.910Z,16.60
2018-10-12T02:47:06.558Z,16.60
2018-10-12T02:49:38.807Z,16.50
2018-10-12T02:52:10.861Z,16.40
2018-10-12T02:54:42.919Z,16.50
2018-10-12T02:57:21.343Z,16.40
2018-10-12T02:59:54.159Z,16.40
2018-10-12T03:02:26.078Z,16.30
2018-10-12T03:04:57.679Z,16.20
2018-10-12T03:07:29.895Z,16.20
2018-10-12T03:10:02.426Z,16.20
2018-10-12T03:12:34.316Z,16.30
2018-10-12T03:15:06.464Z,16.40
2018-10-12T03:17:38.522Z,16.40
2018-10-12T03:20:10.127Z,16.40
2018-10-12T03:22:41.994Z,16.50
2018-10-12T03:25:13.286Z,16.40
2018-10-12T03:27:55.261Z,16.40
2018-10-12T03:30:28.240Z,16.40
2018-10-12T03:33:00.620Z,16.40
2018-10-12T03:35:32.811Z,16.40
2018-10-12T03:38:05.759Z,16.40
2018-10-12T03:40:37.705Z,16.20
2018-10-12T03:43:09.292Z,16.20
2018-10-12T03:45:42.086Z,16.00
2018-10-12T03:48:14.192Z,16.10
2018-10-12T03:50:46.760Z,16.00
2018-10-12T03:53:19.185Z,16.10
2018-10-12T03:55:51.303Z,16.00
2018-10-12T03:58:24.303Z,15.90
2018-10-12T04:00:56.012Z,15.80
2018-10-12T04:03:28.668Z,15.90
2018-10-12T04:06:00.752Z,15.90
2018-10-12T04:08:33.047Z,15.90
2018-10-12T04:11:04.990Z,15.90
2018-10-12T04:13:36.527Z,15.80
2018-10-12T04:16:08.847Z,15.80
2018-10-12T04:18:41.072Z,15.70
2018-10-12T04:21:13.112Z,15.70
2018-10-12T04:23:45.131Z,15.70
2018-10-12T04:26:17.363Z,15.70
2018-10-12T04:28:49.223Z,15.50
2018-10-12T04:31:21.312Z,15.60
2018-10-12T04:33:56.512Z,15.50
2018-10-12T04:36:29.155Z,15.50
2018-10-12T04:39:11.046Z,15.60
2018-10-12T04:41:43.378Z,15.50
2018-10-12T04:44:18.238Z,15.50
2018-10-12T04:46:50.914Z,15.40
2018-10-12T04:49:22.264Z,15.40
2018-10-12T04:51:57.647Z,15.20
2018-10-12T04:54:30.582Z,15.10
2018-10-12T04:57:02.749Z,15.00
2018-10-12T04:59:34.359Z,14.90
2018-10-12T05:02:06.474Z,14.90
2018-10-12T05:04:38.243Z,14.80
2018-10-12T05:07:09.978Z,14.80
2018-10-12T05:09:43.415Z,14.70
2018-10-12T05:12:14.597Z,14.50
2018-10-12T05:14:45.968Z,14.60
2018-10-12T05:17:19.825Z,14.70
2018-10-12T05:19:51.626Z,14.70
2018-10-12T05:22:23.400Z,14.70
2018-10-12T05:24:55.654Z,14.70
2018-10-12T05:27:27.340Z,14.70
2018-10-12T05:29:59.070Z,14.80
2018-10-12T05:32:31.769Z,14.90
2018-10-12T05:35:03.568Z,14.90
2018-10-12T05:37:35.214Z,15.00
2018-10-12T05:40:06.794Z,15.00
2018-10-12T05:42:38.859Z,15.00
2018-10-12T05:45:10.771Z,15.00
2018-10-12T05:47:41.926Z,15.10
2018-10-12T05:50:13.417Z,15.10
2018-10-12T05:52:45.125Z,15.10
2018-10-12T05:55:16.352Z,15.10
2018-10-12T05:57:47.763Z,15.10
2018-10-12T06:00:19.191Z,15.10
2018-10-12T06:02:50.008Z,15.00
2018-10-12T06:05:21.170Z,15.00
2018-10-12T06:07:54.502Z,15.10
2018-10-12T06:10:26.518Z,15.20
2018-10-12T06:12:57.058Z,15.20
2018-10-12T06:15:32.111Z,15.40
2018-10-12T06:18:04.609Z,15.60
2018-10-12T06:20:36.834Z,15.60
2018-10-12T06:23:08.204Z,15.60
2018-10-12T06:25:42.634Z,15.60
2018-10-12T06:28:15.845Z,15.70
2018-10-12T06:30:47.238Z,15.70
2018-10-12T06:33:20.316Z,15.70
2018-10-12T06:35:51.554Z,15.70
2018-10-12T06:38:23.900Z,15.70
2018-10-12T06:40:54.982Z,15.70
2018-10-12T06:43:26.524Z,15.80
2018-10-12T06:45:57.831Z,15.80
2018-10-12T06:48:29.201Z,15.90
2018-10-12T06:51:00.587Z,15.90
2018-10-12T06:53:32.155Z,15.90
2018-10-12T06:56:03.252Z,15.90
2018-10-12T06:58:38.856Z,16.00
2018-10-12T07:01:10.102Z,16.10
2018-10-12T07:03:42.506Z,16.20
2018-10-12T07:06:14.601Z,16.30
2018-10-12T07:08:46.431Z,16.40
2018-10-12T07:11:17.937Z,16.60
2018-10-12T07:13:49.915Z,16.70
2018-10-12T07:16:21.459Z,16.80
2018-10-12T07:18:52.576Z,16.90
2018-10-12T07:21:27.394Z,17.10
2018-10-12T07:23:58.521Z,17.20
2018-10-12T07:26:29.461Z,17.20
2018-10-12T07:29:00.612Z,17.40
2018-10-12T07:31:31.907Z,17.50
2018-10-12T07:34:03.121Z,17.60
2018-10-12T07:36:35.849Z,17.80
2018-10-12T07:39:09.364Z,18.00
2018-10-12T07:41:42.132Z,18.30
2018-10-12T07:44:13.422Z,18.40
2018-10-12T07:46:45.802Z,18.50
2018-10-12T07:49:17.430Z,18.60
2018-10-12T07:51:48.980Z,18.70
2018-10-12T07:54:20.224Z,18.80
2018-10-12T07:56:50.914Z,19.00
2018-10-12T07:59:23.258Z,19.10
2018-10-12T08:01:54.666Z,19.10
2018-10-12T08:04:26.068Z,19.20
2018-10-12T08:06:57.224Z,19.30
2018-10-12T08:09:29.146Z,19.40
2018-10-12T08:12:00.551Z,19.40
2018-10-12T08:14:32.229Z,19.50
2018-10-12T08:17:03.283Z,19.50
2018-10-12T08:19:34.139Z,19.60
2018-10-12T08:22:05.597Z,19.70
2018-10-12T08:24:36.914Z,19.70
2018-10-12T08:27:09.714Z,19.80
2018-10-12T08:29:40.880Z,19.90
2018-10-12T08:32:14.605Z,19.90
2018-10-12T08:34:46.196Z,20.00
2018-10-12T08:37:17.055Z,20.10
2018-10-12T08:39:49.231Z,20.10
2018-10-12T08:42:20.597Z,20.20
2018-10-12T08:44:51.728Z,20.20
2018-10-12T08:47:23.403Z,20.20
2018-10-12T08:49:54.998Z,20.30
2018-10-12T08:52:27.271Z,20.40
2018-10-12T08:54:58.846Z,20.60
2018-10-12T08:57:30.815Z,20.70
2018-10-12T09:00:02.485Z,20.80
2018-10-12T09:02:35.023Z,21.00
2018-10-12T09:05:06.824Z,21.30
2018-10-12T09:07:38.837Z,21.50
2018-10-12T09:10:10.858Z,21.50
2018-10-12T09:12:42.625Z,21.50
2018-10-12T09:15:14.383Z,21.50
2018-10-12T09:17:46.155Z,21.50
2018-10-12T09:20:19.414Z,21.80
2018-10-12T09:22:51.794Z,22.00
2018-10-12T09:25:23.932Z,22.10
2018-10-12T09:27:56.120Z,22.10
2018-10-12T09:30:28.412Z,22.30
2018-10-12T09:33:05.147Z,22.40
2018-10-12T09:35:42.381Z,22.50
2018-10-12T09:38:14.295Z,22.90
2018-10-12T09:40:46.699Z,23.00
2018-10-12T09:43:20.865Z,22.80
2018-10-12T09:45:54.556Z,22.70
2018-10-12T09:48:27.104Z,22.50
2018-10-12T09:50:58.830Z,22.40
2018-10-12T09:53:32.895Z,22.40
2018-10-12T09:56:04.741Z,22.40
2018-10-12T09:58:36.848Z,22.50
2018-10-12T10:01:13.613Z,22.60
2018-10-12T10:03:52.304Z,22.60
2018-10-12T10:06:25.260Z,22.70
2018-10-12T10:08:56.512Z,22.90
2018-10-12T10:11:28.482Z,22.90
2018-10-12T10:16:55.865Z,24.80
2018-10-12T10:19:28.248Z,26.50
2018-10-12T10:21:59.988Z,27.10
2018-10-12T10:24:32.258Z,27.90
2018-10-12T10:27:04.101Z,28.30
2018-10-12T10:29:35.018Z,28.00
2018-10-12T10:32:07.627Z,28.10
2018-10-12T10:34:41.054Z,28.90
2018-10-12T10:37:12.567Z,29.50
2018-10-12T10:39:44.540Z,28.80
2018-10-12T10:42:16.746Z,28.00
2018-10-12T10:44:48.167Z,28.00
2018-10-12T10:47:19.824Z,28.40
2018-10-12T10:49:54.926Z,28.90
2018-10-12T10:52:26.644Z,28.90
2018-10-12T10:55:00.361Z,28.90
2018-10-12T10:57:32.190Z,29.80
2018-10-12T11:00:04.482Z,30.40
2018-10-12T11:02:36.082Z,30.80
2018-10-12T11:05:08.253Z,30.40
2018-10-12T11:07:39.508Z,30.30
2018-10-12T11:10:11.407Z,30.30
2018-10-12T11:12:43.781Z,30.20
2018-10-12T11:15:14.864Z,29.70
2018-10-12T11:17:46.105Z,29.50
2018-10-12T11:20:19.974Z,29.60
2018-10-12T11:22:52.543Z,31.00
2018-10-12T11:25:24.135Z,31.40
2018-10-12T11:27:57.193Z,31.50
2018-10-12T11:30:30.250Z,31.00
2018-10-12T11:33:02.690Z,30.30
2018-10-12T11:35:35.421Z,30.50
2018-10-12T11:38:10.793Z,31.10
2018-10-12T11:40:42.051Z,31.40
2018-10-12T11:43:28.703Z,30.70
2018-10-12T11:46:02.186Z,30.10
2018-10-12T11:48:33.787Z,30.40
2018-10-12T11:51:06.015Z,30.70
2018-10-12T11:53:38.298Z,31.10
2018-10-12T11:56:11.091Z,31.50
2018-10-12T11:58:42.921Z,31.00
2018-10-12T12:01:14.157Z,30.70
2018-10-12T12:03:50.149Z,30.90
2018-10-12T12:06:24.818Z,31.30
2018-10-12T12:08:57.409Z,31.10
2018-10-12T12:11:29.283Z,31.30
2018-10-12T12:14:03.118Z,31.90
2018-10-12T12:16:35.478Z,32.10
2018-10-12T12:19:07.193Z,31.70
2018-10-12T12:21:38.573Z,32.40
2018-10-12T12:24:12.037Z,32.30
2018-10-12T12:26:43.596Z,32.20
2018-10-12T12:29:15.498Z,31.60
2018-10-12T12:31:49.516Z,31.60
2018-10-12T12:34:21.880Z,31.00
2018-10-12T12:36:53.491Z,30.70
2018-10-12T12:39:25.601Z,31.00
2018-10-12T12:41:59.167Z,32.10
2018-10-12T12:44:32.118Z,32.70
2018-10-12T12:47:19.228Z,33.20
2018-10-12T12:49:55.894Z,33.50
2018-10-12T12:52:30.904Z,33.80
2018-10-12T12:55:03.604Z,33.60
2018-10-12T12:57:35.446Z,33.70
2018-10-12T13:00:06.961Z,34.00
2018-10-12T13:02:43.488Z,33.80
2018-10-12T13:05:16.872Z,33.50
2018-10-12T13:07:48.304Z,33.50
2018-10-12T13:10:19.577Z,33.20
2018-10-12T13:19:17.586Z,34.10
2018-10-12T13:21:51.266Z,34.20
2018-10-12T13:24:22.287Z,34.10
2018-10-12T13:26:53.988Z,34.00
2018-10-12T13:29:24.519Z,34.40
2018-10-12T13:31:55.734Z,34.70
2018-10-12T13:34:26.403Z,34.80
2018-10-12T13:36:58.617Z,34.70
2018-10-12T13:39:30.834Z,34.10
2018-10-12T13:42:07.353Z,33.80
2018-10-12T13:44:38.935Z,33.70
2018-10-12T13:47:09.908Z,34.20
2018-10-12T13:49:42.422Z,34.10
2018-10-12T13:52:16.545Z,33.80
2018-10-12T13:54:49.954Z,33.80
2018-10-12T13:57:23.974Z,34.30
2018-10-12T13:59:57.320Z,34.10
2018-10-12T14:02:31.741Z,34.20
2018-10-12T14:05:05.361Z,33.80
2018-10-12T14:07:38.929Z,33.70
2018-10-12T14:10:13.973Z,33.70
2018-10-12T14:12:47.962Z,33.30
2018-10-12T14:15:21.174Z,32.90
2018-10-12T14:17:55.601Z,32.70
2018-10-12T14:20:30.326Z,32.50
2018-10-12T14:23:05.448Z,32.30
2018-10-12T14:25:40.114Z,31.60
2018-10-12T14:28:15.838Z,31.60
2018-10-12T14:30:48.722Z,31.30
2018-10-12T14:33:24.177Z,31.40
2018-10-12T14:35:58.258Z,32.00
2018-10-12T14:38:32.169Z,32.20
2018-10-12T14:41:04.073Z,32.00
2018-10-12T14:43:36.317Z,32.20
2018-10-12T14:46:10.713Z,32.00
2018-10-12T14:48:44.692Z,32.00
2018-10-12T14:51:17.539Z,32.60
2018-10-12T14:53:52.771Z,32.30
2018-10-12T14:56:25.363Z,31.90
2018-10-12T14:58:57.980Z,31.80
2018-10-12T15:01:31.288Z,32.00
2018-10-12T15:04:04.305Z,32.10
2018-10-12T15:06:36.331Z,32.30
2018-10-12T15:09:12.998Z,32.50
2018-10-12T15:11:45.792Z,32.50
2018-10-12T15:14:16.797Z,32.70
2018-10-12T15:16:48.270Z,32.60
2018-10-12T15:19:21.439Z,32.20
2018-10-12T15:21:55.363Z,31.80
2018-10-12T15:24:31.325Z,32.30
2018-10-12T15:27:15.776Z,32.90
2018-10-12T15:29:46.717Z,33.30
2018-10-12T15:32:18.115Z,33.50
2018-10-12T15:34:49.335Z,33.10
2018-10-12T15:37:20.378Z,32.00
2018-10-12T15:39:51.609Z,31.20
2018-10-12T15:42:23.275Z,30.70
2018-10-12T15:44:55.166Z,30.10
2018-10-12T15:47:26.635Z,29.40
2018-10-12T15:49:58.461Z,28.80
2018-10-12T15:52:29.934Z,28.60
2018-10-12T15:55:00.850Z,28.30
2018-10-12T15:57:32.602Z,28.00
2018-10-12T16:00:04.510Z,27.70
2018-10-12T16:02:39.324Z,27.50
2018-10-12T16:05:11.313Z,27.30
2018-10-12T16:07:42.741Z,27.00
2018-10-12T16:10:14.868Z,26.80
2018-10-12T16:12:46.236Z,26.70
2018-10-12T16:15:17.440Z,26.50
2018-10-12T16:17:56.001Z,26.40
2018-10-12T16:20:26.385Z,26.20
2018-10-12T16:22:59.101Z,26.10
2018-10-12T16:26:31.370Z,26.00
2018-10-12T16:29:02.508Z,25.80
2018-10-12T16:31:33.097Z,25.60
2018-10-12T16:34:03.814Z,25.40
2018-10-12T16:36:34.896Z,25.30
2018-10-12T16:39:10.845Z,25.20
2018-10-12T16:41:41.802Z,25.10
2018-10-12T16:44:11.876Z,25.00
2018-10-12T16:46:43.324Z,24.90
2018-10-12T16:49:13.935Z,24.80
2018-10-12T16:51:44.109Z,24.70
2018-10-12T16:54:14.795Z,24.60
2018-10-12T16:56:45.309Z,24.50
2018-10-12T16:59:16.232Z,24.40
2018-10-12T17:01:49.177Z,24.20
2018-10-12T17:04:25.724Z,24.20
2018-10-12T17:06:56.272Z,24.10
2018-10-12T17:09:28.176Z,24.10
2018-10-12T17:11:58.722Z,24.00
2018-10-12T17:14:29.004Z,23.90
2018-10-12T17:16:59.352Z,23.90
2018-10-12T17:19:30.087Z,23.80
2018-10-12T17:22:01.464Z,23.70
2018-10-12T17:24:32.881Z,23.60
2018-10-12T17:27:09.498Z,23.50
2018-10-12T17:29:40.360Z,23.30
2018-10-12T17:32:10.412Z,23.20
2018-10-12T17:34:46.041Z,23.10
2018-10-12T17:37:16.447Z,23.00
2018-10-12T17:39:46.744Z,23.00
2018-10-12T17:42:18.540Z,23.00
2018-10-12T17:44:48.924Z,23.00
2018-10-12T17:47:22.856Z,23.00
2018-10-12T17:49:53.531Z,23.00
2018-10-12T17:52:25.124Z,22.90
2018-10-12T17:54:55.562Z,22.80
2018-10-12T17:57:26.852Z,22.70
2018-10-12T17:59:57.639Z,22.60
2018-10-12T18:02:27.552Z,22.60
2018-10-12T18:05:00.977Z,22.60
2018-10-12T18:07:31.455Z,22.50
2018-10-12T18:10:01.813Z,22.40
2018-10-12T18:12:35.534Z,22.30
2018-10-12T18:15:08.042Z,22.10
2018-10-12T18:17:38.492Z,21.80
2018-10-12T18:20:09.168Z,21.60
2018-10-12T18:22:40.884Z,21.50
2018-10-12T18:25:11.080Z,21.50
2018-10-12T18:27:43.868Z,21.40
2018-10-12T18:30:14.088Z,21.30
2018-10-12T18:32:45.218Z,21.30
2018-10-12T18:35:15.589Z,21.20
2018-10-12T18:37:46.147Z,21.00
2018-10-12T18:40:16.572Z,20.90
2018-10-12T18:42:47.026Z,20.90
2018-10-12T18:45:28.183Z,20.90
2018-10-12T18:47:59.088Z,21.00
2018-10-12T18:50:38.788Z,21.10
2018-10-12T18:53:15.373Z,21.20
2018-10-12T18:55:48.265Z,21.20
2018-10-12T18:58:19.382Z,21.30
2018-10-12T19:00:51.104Z,21.30
2018-10-12T19:03:27.748Z,21.30
2018-10-12T19:06:00.199Z,21.20
2018-10-12T19:08:32.640Z,21.10
2018-10-12T19:11:04.484Z,21.00
2018-10-12T19:13:36.302Z,20.90
2018-10-12T19:16:07.585Z,20.80
2018-10-12T19:18:37.781Z,20.60
2018-10-12T19:21:13.873Z,20.50
2018-10-12T19:23:52.704Z,20.40
2018-10-12T19:26:31.393Z,20.40
2018-10-12T19:29:03.809Z,20.40
2018-10-12T19:31:38.405Z,20.30
2018-10-12T19:34:14.633Z,20.30
2018-10-12T19:36:46.591Z,20.10
2018-10-12T19:39:17.440Z,20.00
2018-10-12T19:41:47.541Z,19.90
2018-10-12T19:44:18.126Z,20.00
2018-10-12T19:46:48.579Z,19.90
2018-10-12T19:49:19.225Z,19.80
2018-10-12T19:51:49.260Z,19.70
2018-10-12T19:54:20.756Z,19.70
2018-10-12T19:56:51.816Z,19.70
2018-10-12T19:59:23.182Z,19.70
2018-10-12T20:01:54.110Z,19.70
2018-10-12T20:04:26.402Z,19.60
2018-10-12T20:06:59.507Z,19.60
2018-10-12T20:09:35.058Z,19.70
2018-10-12T20:12:06.463Z,19.60
2018-10-12T20:14:38.198Z,19.50
2018-10-12T20:17:09.306Z,19.40
2018-10-12T20:19:41.122Z,19.40
2018-10-12T20:22:12.693Z,19.30
2018-10-12T20:24:44.579Z,19.40
2018-10-12T20:27:16.046Z,19.40
2018-10-12T20:29:47.271Z,19.40
2018-10-12T20:32:22.451Z,19.40
2018-10-12T20:34:53.686Z,19.40
2018-10-12T20:37:25.052Z,19.40
2018-10-12T20:39:56.852Z,19.40
2018-10-12T20:42:27.354Z,19.40
2018-10-12T20:44:57.957Z,19.40
2018-10-12T20:47:28.449Z,19.40
2018-10-12T20:50:00.835Z,19.40
2018-10-12T20:52:31.414Z,19.40
2018-10-12T20:55:02.959Z,19.30
2018-10-12T20:57:37.606Z,19.40
2018-10-12T21:00:09.242Z,19.30
2018-10-12T21:02:41.858Z,19.30
2018-10-12T21:05:13.789Z,19.20
2018-10-12T21:07:45.813Z,19.20
2018-10-12T21:10:17.865Z,19.20
2018-10-12T21:12:48.425Z,19.30
2018-10-12T21:15:18.739Z,19.30
2018-10-12T21:17:51.050Z,19.20
2018-10-12T21:20:21.050Z,19.20
2018-10-12T21:22:51.204Z,19.30
2018-10-12T21:25:21.752Z,19.10
2018-10-12T21:27:53.036Z,19.10
2018-10-12T21:30:25.476Z,19.10
2018-10-12T21:32:56.528Z,19.10
2018-10-12T21:35:29.843Z,19.00
2018-10-12T21:38:01.212Z,19.00
2018-10-12T21:40:33.431Z,19.10
2018-10-12T21:43:04.693Z,19.20
2018-10-12T21:45:36.384Z,19.20
2018-10-12T21:48:07.171Z,19.10
2018-10-12T21:50:38.662Z,19.10
2018-10-12T21:53:12.616Z,19.20
2018-10-12T21:55:44.132Z,19.20
2018-10-12T21:58:15.471Z,19.20
2018-10-12T22:01:18.907Z,19.30
2018-10-12T22:03:55.726Z,19.30
2018-10-12T22:06:26.862Z,19.40
2018-10-12T22:09:06.046Z,19.40
2018-10-12T22:11:37.799Z,19.50
2018-10-12T22:14:09.210Z,19.50
2018-10-12T22:16:40.504Z,19.50
2018-10-12T22:19:12.351Z,19.60
2018-10-12T22:21:43.659Z,19.60
2018-10-12T22:24:18.839Z,19.60
2018-10-12T22:26:49.758Z,19.70
2018-10-12T22:29:20.193Z,19.70
2018-10-12T22:31:50.543Z,19.60
2018-10-12T22:34:20.911Z,19.60
2018-10-12T22:36:56.963Z,19.60
2018-10-12T22:39:28.559Z,19.70
2018-10-12T22:41:59.309Z,19.60
2018-10-12T22:44:29.947Z,19.60
2018-10-12T22:47:05.116Z,19.50
2018-10-12T22:49:35.792Z,19.50
2018-10-12T22:52:06.274Z,19.60
2018-10-12T22:54:38.579Z,19.60
2018-10-12T22:57:10.070Z,19.60
2018-10-12T22:59:43.841Z,19.60
2018-10-12T23:02:15.893Z,19.60
2018-10-12T23:04:46.964Z,19.60
2018-10-12T23:07:18.103Z,19.60
2018-10-12T23:09:51.057Z,19.60
2018-10-12T23:12:21.784Z,19.50
2018-10-12T23:14:52.285Z,19.50
2018-10-12T23:17:22.598Z,19.50
2018-10-12T23:19:53.085Z,19.60
2018-10-12T23:22:22.976Z,19.60
2018-10-12T23:24:53.390Z,19.60
2018-10-12T23:27:23.615Z,19.50
2018-10-12T23:29:54.400Z,19.50
2018-10-12T23:32:24.592Z,19.50
2018-10-12T23:34:55.016Z,19.50
2018-10-12T23:37:25.003Z,19.40
2018-10-12T23:39:55.154Z,19.40
2018-10-12T23:42:25.558Z,19.40
2018-10-12T23:44:55.627Z,19.40
2018-10-12T23:47:25.669Z,19.40
2018-10-12T23:49:55.896Z,19.30
2018-10-12T23:52:26.034Z,19.30
2018-10-12T23:54:55.952Z,19.20
2018-10-12T23:57:26.720Z,19.20
2018-10-12T23:59:57.635Z,19.30
